Time;durP1;ratioP1;P1;durP2;ratioP2;P2;SDS_P1;SDS_P2;PMS_P1;PMS_P2;Temp;Humidity;BMP_temperature;BMP_pressure;BME280_temperature;BME280_humidity;BME280_pressure;Samples;Min_cycle;Max_cycle;Signal;HPM_P1;HPM_P2
2023/06/20 00:01:21;;;;;;;28.10;17.33;;;19.80;99.90;;;;;;5094733;28;20186;-79
2023/06/20 00:03:47;;;;;;;28.23;17.80;;;19.80;99.90;;;;;;5107306;28;20280;-85
2023/06/20 00:06:12;;;;;;;28.05;18.05;;;19.70;99.90;;;;;;5095700;28;20181;-78
2023/06/20 00:08:38;;;;;;;31.98;18.40;;;19.70;99.90;;;;;;5112597;28;20638;-78
2023/06/20 00:11:04;;;;;;;25.85;17.23;;;19.60;99.90;;;;;;5106739;27;20170;-78
2023/06/20 00:13:30;;;;;;;31.05;17.15;;;19.60;99.90;;;;;;5073902;28;20273;-79
2023/06/20 00:15:58;;;;;;;29.00;18.35;;;19.60;99.90;;;;;;5101557;28;20544;-78
2023/06/20 00:18:25;;;;;;;32.60;18.30;;;19.60;99.90;;;;;;5104126;28;20182;-81
2023/06/20 00:20:53;;;;;;;26.90;18.30;;;19.60;99.90;;;;;;5096401;28;20277;-78
2023/06/20 00:23:21;;;;;;;28.45;17.67;;;19.60;99.90;;;;;;5093380;28;20247;-78
2023/06/20 00:25:47;;;;;;;27.55;17.95;;;19.60;99.90;;;;;;5092009;28;20189;-78
2023/06/20 00:28:16;;;;;;;23.95;17.27;;;19.60;99.90;;;;;;5098935;28;20692;-78
2023/06/20 00:30:42;;;;;;;26.10;17.27;;;19.60;99.90;;;;;;5101457;28;20284;-78
2023/06/20 00:33:08;;;;;;;29.90;17.77;;;19.60;99.90;;;;;;5099038;27;20185;-78
2023/06/20 00:35:33;;;;;;;28.40;17.40;;;19.60;99.90;;;;;;5096246;28;20220;-79
2023/06/20 00:38:01;;;;;;;23.98;17.08;;;19.60;99.90;;;;;;5105370;27;20188;-79
2023/06/20 00:40:27;;;;;;;27.90;17.35;;;19.50;99.90;;;;;;5101890;28;20274;-78
2023/06/20 00:42:54;;;;;;;30.23;17.42;;;19.50;99.90;;;;;;5091770;28;20246;-78
2023/06/20 00:45:30;;;;;;;34.25;17.77;;;19.50;99.90;;;;;;5091405;28;20182;-78
2023/06/20 00:48:01;;;;;;;24.98;17.75;;;19.50;99.90;;;;;;5092871;28;20190;-78
2023/06/20 00:50:31;;;;;;;27.48;18.13;;;19.40;99.90;;;;;;5106029;28;20215;-78
2023/06/20 00:53:05;;;;;;;29.15;17.73;;;19.40;99.90;;;;;;5099517;28;20583;-78
2023/06/20 00:55:33;;;;;;;25.02;16.70;;;19.40;99.90;;;;;;5095216;28;20659;-78
2023/06/20 00:58:00;;;;;;;26.40;17.38;;;19.30;99.90;;;;;;5086466;28;20265;-78
2023/06/20 01:00:32;;;;;;;29.08;17.65;;;19.30;99.90;;;;;;5078009;28;20680;-77
2023/06/20 01:03:10;;;;;;;27.77;18.38;;;19.30;99.90;;;;;;5092910;28;20197;-78
2023/06/20 01:05:36;;;;;;;26.10;16.45;;;19.30;99.90;;;;;;5091943;28;20239;-79
2023/06/20 01:08:11;;;;;;;25.02;16.77;;;19.20;99.90;;;;;;5080398;28;20536;-77
2023/06/20 01:10:55;;;;;;;24.45;16.73;;;19.20;99.90;;;;;;5100898;28;20259;-78
2023/06/20 01:13:45;;;;;;;28.00;15.88;;;19.20;99.90;;;;;;5101128;28;20181;-78
2023/06/20 01:16:35;;;;;;;24.58;15.75;;;19.20;99.90;;;;;;5099512;27;20198;-78
2023/06/20 01:19:22;;;;;;;22.75;15.00;;;19.20;99.90;;;;;;5097851;27;20185;-78
2023/06/20 01:21:58;;;;;;;22.27;14.68;;;19.20;99.90;;;;;;5101061;28;20177;-79
2023/06/20 01:24:38;;;;;;;22.83;14.75;;;19.10;99.90;;;;;;5097742;28;20185;-78
2023/06/20 01:27:12;;;;;;;22.13;13.75;;;19.10;99.90;;;;;;5103429;28;20208;-78
2023/06/20 01:29:56;;;;;;;18.15;13.32;;;19.10;99.90;;;;;;5099981;28;20166;-79
2023/06/20 01:32:23;;;;;;;23.35;13.30;;;19.10;99.90;;;;;;5102153;27;20181;-78
2023/06/20 01:35:01;;;;;;;19.58;13.13;;;19.10;99.90;;;;;;5105786;28;20180;-79
2023/06/20 01:37:29;;;;;;;19.23;13.02;;;19.10;99.90;;;;;;5102813;28;20645;-78
2023/06/20 01:40:00;;;;;;;22.38;13.38;;;19.10;99.90;;;;;;5107768;28;20240;-79
2023/06/20 01:42:27;;;;;;;17.38;12.50;;;19.10;99.90;;;;;;5095301;28;20181;-79
2023/06/20 01:44:57;;;;;;;20.25;13.30;;;19.10;99.90;;;;;;5103995;28;20181;-79
2023/06/20 01:47:24;;;;;;;20.33;13.13;;;19.10;99.90;;;;;;5111186;28;20188;-78
2023/06/20 01:49:52;;;;;;;17.40;13.13;;;19.00;99.90;;;;;;5108808;28;20181;-78
2023/06/20 01:52:19;;;;;;;22.75;13.07;;;19.00;99.90;;;;;;5100098;28;20596;-80
2023/06/20 01:54:47;;;;;;;18.98;13.27;;;19.00;99.90;;;;;;5102978;28;20180;-78
2023/06/20 01:57:15;;;;;;;21.05;13.63;;;19.00;99.90;;;;;;5110747;28;20302;-80
2023/06/20 01:59:42;;;;;;;19.20;13.77;;;19.00;99.90;;;;;;5105989;28;20699;-80
2023/06/20 02:02:08;;;;;;;19.40;13.30;;;19.00;99.90;;;;;;5084372;28;20272;-80
2023/06/20 02:04:35;;;;;;;17.35;12.95;;;19.00;99.90;;;;;;5096596;27;20185;-79
2023/06/20 02:07:04;;;;;;;19.05;13.85;;;19.00;99.90;;;;;;5090546;28;20181;-80
2023/06/20 02:09:30;;;;;;;21.25;13.85;;;19.00;99.90;;;;;;5093699;28;20188;-80
2023/06/20 02:11:58;;;;;;;21.27;12.60;;;19.00;99.90;;;;;;5100286;27;20610;-79
2023/06/20 02:14:25;;;;;;;19.80;11.75;;;18.90;99.90;;;;;;5096217;28;20265;-79
2023/06/20 02:16:52;;;;;;;22.48;12.52;;;18.90;99.90;;;;;;5103414;28;20193;-79
2023/06/20 02:19:18;;;;;;;18.70;12.23;;;18.90;99.90;;;;;;5094170;28;20239;-79
2023/06/20 02:21:46;;;;;;;20.00;12.05;;;18.90;99.90;;;;;;5089483;27;20254;-79
2023/06/20 02:24:18;;;;;;;18.38;11.60;;;18.90;99.90;;;;;;5072991;28;20251;-78
2023/06/20 02:26:46;;;;;;;17.30;11.77;;;18.90;99.90;;;;;;5073508;28;20182;-79
2023/06/20 02:29:13;;;;;;;17.95;11.70;;;18.90;99.90;;;;;;5091677;28;20176;-79
2023/06/20 02:31:45;;;;;;;19.02;12.35;;;18.90;99.90;;;;;;5092382;28;20185;-83
2023/06/20 02:34:21;;;;;;;20.45;13.23;;;18.90;99.90;;;;;;5099852;28;20216;-79
2023/06/20 02:36:48;;;;;;;22.95;12.82;;;18.90;99.90;;;;;;5100374;28;20213;-81
2023/06/20 02:39:14;;;;;;;20.27;13.68;;;18.90;99.90;;;;;;5102958;28;20661;-79
2023/06/20 02:41:43;;;;;;;22.35;13.45;;;18.90;99.90;;;;;;5095189;28;20218;-79
2023/06/20 02:44:09;;;;;;;24.25;14.45;;;18.90;99.90;;;;;;5098742;28;20231;-78
2023/06/20 02:46:46;;;;;;;19.98;13.95;;;18.90;99.90;;;;;;5090013;28;20204;-78
2023/06/20 02:49:20;;;;;;;21.38;15.02;;;18.80;99.90;;;;;;5092193;28;20192;-78
2023/06/20 02:52:11;;;;;;;26.40;14.45;;;18.80;99.90;;;;;;5090176;28;20276;-80
2023/06/20 02:54:55;;;;;;;23.73;14.82;;;18.80;99.90;;;;;;5073366;28;20170;-79
2023/06/20 02:57:21;;;;;;;24.50;14.93;;;18.80;99.90;;;;;;5099635;28;20644;-79
2023/06/20 02:59:58;;;;;;;20.55;15.25;;;18.80;99.90;;;;;;5088732;28;20729;-80
2023/06/20 03:02:31;;;;;;;26.90;15.55;;;18.70;99.90;;;;;;5104396;28;20185;-79
2023/06/20 03:05:00;;;;;;;21.48;14.68;;;18.70;99.90;;;;;;5092076;28;20177;-79
2023/06/20 03:07:33;;;;;;;23.63;14.80;;;18.70;99.90;;;;;;5090094;28;20181;-79
2023/06/20 03:10:03;;;;;;;20.15;14.25;;;18.70;99.90;;;;;;5106069;28;20189;-83
2023/06/20 03:12:32;;;;;;;25.38;14.70;;;18.70;99.90;;;;;;5108153;28;20202;-80
2023/06/20 03:14:58;;;;;;;23.15;14.75;;;18.70;99.90;;;;;;5092443;28;20248;-81
2023/06/20 03:17:24;;;;;;;24.98;16.70;;;18.70;99.90;;;;;;5093428;28;20209;-81
2023/06/20 03:19:50;;;;;;;27.42;16.27;;;18.60;99.90;;;;;;5105862;28;20625;-81
2023/06/20 03:22:18;;;;;;;24.92;16.48;;;18.60;99.90;;;;;;5087707;28;20272;-80
2023/06/20 03:24:47;;;;;;;22.40;15.23;;;18.50;99.90;;;;;;5101726;28;20245;-82
2023/06/20 03:27:14;;;;;;;24.90;15.48;;;18.50;99.90;;;;;;5080107;28;20234;-80
2023/06/20 03:29:41;;;;;;;23.15;15.55;;;18.50;99.90;;;;;;5094445;28;20189;-80
2023/06/20 03:32:07;;;;;;;26.33;15.82;;;18.50;99.90;;;;;;5090021;28;20185;-81
2023/06/20 03:34:33;;;;;;;21.42;15.45;;;18.50;99.90;;;;;;5125982;27;20267;-81
2023/06/20 03:37:01;;;;;;;24.48;15.68;;;18.50;99.90;;;;;;5092655;28;20213;-80
2023/06/20 03:39:29;;;;;;;30.40;16.30;;;18.50;99.90;;;;;;5100257;28;20185;-81
2023/06/20 03:41:54;;;;;;;25.02;15.82;;;18.50;99.90;;;;;;5103794;28;20229;-80
2023/06/20 03:44:21;;;;;;;22.20;15.68;;;18.50;99.90;;;;;;5092193;28;20617;-84
2023/06/20 03:46:47;;;;;;;24.10;15.55;;;18.50;99.90;;;;;;5098766;28;20181;-80
2023/06/20 03:49:13;;;;;;;24.05;16.33;;;18.50;99.90;;;;;;5112732;28;20605;-80
2023/06/20 03:51:39;;;;;;;24.30;15.73;;;18.60;99.90;;;;;;5091208;28;20692;-80
2023/06/20 03:54:05;;;;;;;25.27;15.88;;;18.60;99.90;;;;;;5092719;28;20186;-80
2023/06/20 03:56:32;;;;;;;29.55;15.93;;;18.60;99.90;;;;;;5092569;28;20220;-80
2023/06/20 03:58:57;;;;;;;25.65;15.70;;;18.60;99.90;;;;;;5094311;28;20177;-81
2023/06/20 04:01:24;;;;;;;23.00;15.50;;;18.60;99.90;;;;;;5111423;28;20189;-80
2023/06/20 04:03:52;;;;;;;22.55;16.00;;;18.60;99.90;;;;;;5104444;27;20277;-82
2023/06/20 04:06:18;;;;;;;23.27;16.13;;;18.60;99.90;;;;;;5092750;28;20212;-81
2023/06/20 04:08:45;;;;;;;27.80;17.55;;;18.60;99.90;;;;;;5075600;28;20691;-80
2023/06/20 04:11:11;;;;;;;21.23;16.02;;;18.60;99.90;;;;;;5095640;28;20186;-80
2023/06/20 04:13:37;;;;;;;26.95;16.45;;;18.60;99.90;;;;;;5096164;27;20213;-82
2023/06/20 04:16:03;;;;;;;25.15;15.65;;;18.60;99.90;;;;;;5089255;28;20248;-81
2023/06/20 04:18:29;;;;;;;25.48;16.80;;;18.60;99.90;;;;;;5076856;28;20201;-79
2023/06/20 04:20:56;;;;;;;25.08;16.73;;;18.60;99.90;;;;;;5108392;28;20625;-84
2023/06/20 04:23:21;;;;;;;28.50;17.60;;;18.70;99.90;;;;;;5108942;28;20188;-82
2023/06/20 04:25:47;;;;;;;25.00;17.48;;;18.70;99.90;;;;;;5109648;27;20516;-78
2023/06/20 04:28:17;;;;;;;27.35;18.00;;;18.70;99.90;;;;;;5114037;28;20339;-79
2023/06/20 04:30:52;;;;;;;26.98;16.60;;;18.70;99.90;;;;;;5095194;28;20177;-79
2023/06/20 04:33:19;;;;;;;21.90;16.75;;;18.80;99.90;;;;;;5109499;28;20277;-79
2023/06/20 04:35:45;;;;;;;26.52;16.65;;;18.80;99.90;;;;;;5102235;27;20209;-80
2023/06/20 04:38:13;;;;;;;27.65;17.70;;;18.80;99.90;;;;;;5109879;28;20190;-80
2023/06/20 04:40:39;;;;;;;23.40;16.95;;;18.70;99.90;;;;;;5075763;28;20302;-79
2023/06/20 04:43:04;;;;;;;30.70;17.00;;;18.70;99.90;;;;;;5096186;28;20243;-79
2023/06/20 04:45:30;;;;;;;24.67;16.88;;;18.70;99.90;;;;;;5093251;28;20600;-79
2023/06/20 04:47:57;;;;;;;25.92;16.83;;;18.70;99.90;;;;;;5095380;28;20352;-79
2023/06/20 04:50:23;;;;;;;24.00;16.33;;;18.70;99.90;;;;;;5104828;28;20189;-79
2023/06/20 04:52:49;;;;;;;24.30;15.93;;;18.80;99.90;;;;;;5111881;28;20185;-79
2023/06/20 04:55:15;;;;;;;23.73;16.70;;;18.80;99.90;;;;;;5086353;28;20189;-79
2023/06/20 04:57:40;;;;;;;25.25;17.02;;;18.80;99.90;;;;;;5091679;28;20173;-78
2023/06/20 05:00:07;;;;;;;24.10;16.67;;;18.80;99.90;;;;;;5076569;28;20269;-79
2023/06/20 05:02:34;;;;;;;23.67;16.42;;;18.80;99.90;;;;;;5090750;28;20192;-78
2023/06/20 05:05:00;;;;;;;23.10;16.77;;;18.80;99.90;;;;;;5087499;28;20186;-78
2023/06/20 05:07:26;;;;;;;24.05;17.00;;;18.80;99.90;;;;;;5093989;28;20184;-79
2023/06/20 05:09:52;;;;;;;22.75;17.10;;;18.80;99.90;;;;;;5095573;28;20185;-79
2023/06/20 05:12:18;;;;;;;21.20;15.95;;;18.90;99.90;;;;;;5105371;27;20173;-82
2023/06/20 05:14:43;;;;;;;23.65;16.75;;;18.80;99.90;;;;;;5088123;28;20185;-78
2023/06/20 05:17:09;;;;;;;23.52;16.63;;;18.80;99.90;;;;;;5106304;28;20651;-78
2023/06/20 05:19:35;;;;;;;24.15;16.30;;;18.90;99.90;;;;;;5097760;28;20193;-80
2023/06/20 05:22:01;;;;;;;22.15;16.25;;;18.90;99.90;;;;;;5093440;27;20491;-78
2023/06/20 05:24:26;;;;;;;22.58;16.30;;;18.90;99.90;;;;;;5092124;27;20174;-77
2023/06/20 05:26:52;;;;;;;22.58;15.73;;;18.90;99.90;;;;;;5112341;28;20284;-77
2023/06/20 05:29:18;;;;;;;24.63;16.45;;;18.90;99.90;;;;;;5099074;27;20190;-78
2023/06/20 05:31:44;;;;;;;24.50;16.00;;;18.90;99.90;;;;;;5102849;28;20260;-78
2023/06/20 05:34:09;;;;;;;22.52;15.95;;;18.90;99.90;;;;;;5097693;28;20275;-78
2023/06/20 05:36:35;;;;;;;20.73;15.00;;;19.00;99.90;;;;;;5091945;28;20201;-79
2023/06/20 05:39:01;;;;;;;19.65;14.80;;;19.00;99.90;;;;;;5094225;28;20194;-79
2023/06/20 05:41:27;;;;;;;20.73;15.15;;;19.00;99.90;;;;;;5074931;28;20278;-78
2023/06/20 05:43:52;;;;;;;22.30;15.45;;;19.00;99.90;;;;;;5093194;28;20893;-78
2023/06/20 05:46:18;;;;;;;22.58;15.43;;;19.10;99.90;;;;;;5075003;28;20638;-78
2023/06/20 05:48:44;;;;;;;24.63;15.20;;;19.10;99.90;;;;;;5092202;28;20326;-78
2023/06/20 05:51:13;;;;;;;22.95;15.57;;;19.10;99.90;;;;;;5090474;28;20638;-78
2023/06/20 05:53:41;;;;;;;21.92;15.88;;;19.20;99.90;;;;;;5090551;28;20185;-79
2023/06/20 05:56:11;;;;;;;22.73;15.05;;;19.20;99.90;;;;;;5091534;28;20209;-79
2023/06/20 05:58:37;;;;;;;20.02;14.52;;;19.20;99.90;;;;;;5093221;28;20250;-79
2023/06/20 06:01:04;;;;;;;18.98;15.38;;;19.20;99.90;;;;;;5095548;28;20712;-80
2023/06/20 06:03:32;;;;;;;23.05;15.20;;;19.20;99.90;;;;;;5103655;28;20174;-80
2023/06/20 06:05:59;;;;;;;22.42;15.38;;;19.20;99.90;;;;;;5102784;28;20200;-78
2023/06/20 06:08:25;;;;;;;24.45;16.27;;;19.30;99.90;;;;;;5090679;28;20304;-79
2023/06/20 06:10:52;;;;;;;25.38;16.15;;;19.30;99.90;;;;;;5091494;28;20182;-78
2023/06/20 06:13:18;;;;;;;26.10;16.30;;;19.30;99.90;;;;;;5091440;28;20214;-78
2023/06/20 06:15:44;;;;;;;24.65;16.40;;;19.30;99.90;;;;;;5097865;28;20216;-79
2023/06/20 06:18:10;;;;;;;27.17;16.67;;;19.30;99.90;;;;;;5091269;28;20188;-79
2023/06/20 06:20:35;;;;;;;26.27;16.10;;;19.40;99.90;;;;;;5091792;28;20501;-80
2023/06/20 06:23:01;;;;;;;21.27;15.35;;;19.40;99.90;;;;;;5091267;28;20258;-79
2023/06/20 06:25:28;;;;;;;25.88;16.45;;;19.40;99.90;;;;;;5096854;28;20653;-79
2023/06/20 06:27:54;;;;;;;20.75;15.63;;;19.50;99.90;;;;;;5094529;28;20188;-80
2023/06/20 06:30:19;;;;;;;24.33;16.60;;;19.50;99.90;;;;;;5092835;28;20265;-78
2023/06/20 06:32:48;;;;;;;24.75;17.33;;;19.50;99.90;;;;;;5092414;28;20182;-79
2023/06/20 06:35:16;;;;;;;22.23;16.02;;;19.50;99.90;;;;;;5090715;28;20186;-79
2023/06/20 06:37:42;;;;;;;26.85;16.20;;;19.50;99.90;;;;;;5094370;28;20185;-78
2023/06/20 06:40:11;;;;;;;24.35;16.80;;;19.60;99.90;;;;;;5099670;28;20699;-79
2023/06/20 06:42:37;;;;;;;25.02;15.82;;;19.60;99.90;;;;;;5101901;28;20198;-79
2023/06/20 06:45:04;;;;;;;27.45;16.75;;;19.70;99.90;;;;;;5098730;28;20190;-79
2023/06/20 06:47:30;;;;;;;22.90;15.85;;;19.70;99.90;;;;;;5095457;28;20193;-78
2023/06/20 06:49:55;;;;;;;25.40;16.75;;;19.70;99.90;;;;;;5102791;28;20597;-79
2023/06/20 06:52:22;;;;;;;23.55;15.85;;;19.80;99.90;;;;;;5097191;28;20613;-79
2023/06/20 06:54:47;;;;;;;25.70;16.77;;;19.90;99.90;;;;;;5093487;28;20249;-78
2023/06/20 06:57:13;;;;;;;24.73;16.77;;;19.90;99.90;;;;;;5060122;28;20212;-78
2023/06/20 06:59:39;;;;;;;24.92;16.92;;;19.90;99.90;;;;;;5095509;28;20540;-77
2023/06/20 07:02:05;;;;;;;28.65;17.00;;;20.00;99.90;;;;;;5107857;28;20185;-77
2023/06/20 07:04:32;;;;;;;29.48;17.42;;;20.00;99.90;;;;;;5098617;28;20188;-78
2023/06/20 07:06:58;;;;;;;25.88;16.80;;;20.10;99.90;;;;;;5109690;28;20269;-79
2023/06/20 07:09:24;;;;;;;24.85;16.70;;;20.10;99.90;;;;;;5098283;28;20216;-80
2023/06/20 07:11:49;;;;;;;23.20;16.23;;;20.20;99.90;;;;;;5108235;28;20648;-79
2023/06/20 07:14:15;;;;;;;26.90;17.13;;;20.20;99.90;;;;;;5094594;28;20526;-79
2023/06/20 07:16:41;;;;;;;27.40;16.75;;;20.30;99.90;;;;;;5114192;28;20633;-80
2023/06/20 07:19:07;;;;;;;27.38;16.95;;;20.30;99.90;;;;;;5098366;28;20277;-80
2023/06/20 07:21:32;;;;;;;23.80;16.05;;;20.40;99.90;;;;;;5104959;28;20181;-78
2023/06/20 07:23:58;;;;;;;24.83;15.57;;;20.40;99.90;;;;;;5101980;28;20182;-78
2023/06/20 07:26:24;;;;;;;20.85;16.08;;;20.50;99.90;;;;;;5102916;27;20272;-80
2023/06/20 07:28:50;;;;;;;21.08;15.30;;;20.60;99.90;;;;;;5094872;28;20197;-80
2023/06/20 07:31:19;;;;;;;23.08;15.57;;;20.60;99.90;;;;;;5076203;28;20277;-80
2023/06/20 07:33:45;;;;;;;22.40;15.27;;;20.70;99.90;;;;;;5099041;28;20582;-82
2023/06/20 07:36:11;;;;;;;18.52;14.20;;;20.70;99.90;;;;;;5097760;27;20212;-79
2023/06/20 07:38:37;;;;;;;21.83;14.70;;;20.80;99.90;;;;;;5094449;28;20185;-79
2023/06/20 07:41:03;;;;;;;23.83;15.95;;;20.90;99.90;;;;;;5098185;28;20554;-80
2023/06/20 07:43:29;;;;;;;19.52;14.85;;;20.90;99.90;;;;;;5105986;28;20189;-80
2023/06/20 07:45:55;;;;;;;22.25;16.17;;;21.00;99.90;;;;;;5104121;28;20599;-80
2023/06/20 07:48:24;;;;;;;19.25;14.50;;;21.10;99.90;;;;;;5102787;28;20181;-80
2023/06/20 07:50:50;;;;;;;19.15;13.73;;;21.10;99.90;;;;;;5113103;28;20185;-81
2023/06/20 07:53:16;;;;;;;20.50;15.18;;;21.20;99.90;;;;;;5105471;27;20205;-80
2023/06/20 07:55:41;;;;;;;21.92;14.07;;;21.30;99.90;;;;;;5104210;28;20621;-78
2023/06/20 07:58:07;;;;;;;31.15;14.95;;;21.30;99.90;;;;;;5108595;28;20185;-79
2023/06/20 08:00:33;;;;;;;19.80;14.02;;;21.40;99.90;;;;;;5095869;27;20188;-78
2023/06/20 08:02:59;;;;;;;20.23;14.82;;;21.60;99.90;;;;;;5096791;28;20185;-77
2023/06/20 08:05:25;;;;;;;24.35;17.05;;;21.60;99.90;;;;;;5112280;28;20219;-80
2023/06/20 08:07:50;;;;;;;22.67;16.40;;;21.70;99.90;;;;;;5112253;28;20218;-77
2023/06/20 08:10:16;;;;;;;24.98;15.45;;;21.80;99.90;;;;;;5112640;28;20173;-80
2023/06/20 08:12:42;;;;;;;20.85;14.05;;;21.90;99.90;;;;;;5105899;28;20618;-80
2023/06/20 08:15:08;;;;;;;34.10;23.73;;;21.90;99.90;;;;;;5097868;27;20200;-81
2023/06/20 08:17:35;;;;;;;19.38;12.73;;;22.00;99.90;;;;;;5107862;27;20593;-79
2023/06/20 08:20:01;;;;;;;24.98;15.60;;;22.10;99.90;;;;;;5100016;28;20275;-81
2023/06/20 08:22:28;;;;;;;17.77;13.63;;;22.20;99.90;;;;;;5099125;27;20185;-79
2023/06/20 08:24:54;;;;;;;21.50;12.60;;;22.30;99.90;;;;;;5101986;27;20188;-79
2023/06/20 08:27:20;;;;;;;17.08;13.23;;;22.30;99.90;;;;;;5104804;28;20267;-81
2023/06/20 08:29:45;;;;;;;20.58;14.32;;;22.40;99.90;;;;;;5103390;28;20276;-82
2023/06/20 08:32:11;;;;;;;18.45;12.98;;;22.50;99.90;;;;;;5101169;27;20273;-77
2023/06/20 08:34:38;;;;;;;19.95;13.80;;;22.60;99.90;;;;;;5082296;28;20203;-80
2023/06/20 08:37:04;;;;;;;20.85;15.30;;;22.70;99.90;;;;;;5093208;28;20724;-80
2023/06/20 08:39:30;;;;;;;24.02;16.05;;;22.70;99.90;;;;;;5091714;28;20671;-80
2023/06/20 08:41:56;;;;;;;23.30;16.00;;;22.80;99.90;;;;;;5077558;28;20220;-78
2023/06/20 08:44:22;;;;;;;20.35;15.27;;;22.70;99.90;;;;;;5098672;28;20272;-78
2023/06/20 08:46:56;;;;;;;17.15;13.80;;;22.70;99.90;;;;;;5109633;28;20219;-80
2023/06/20 08:49:23;;;;;;;20.73;14.35;;;22.70;99.90;;;;;;5085186;28;20185;-84
2023/06/20 08:51:52;;;;;;;17.65;14.05;;;22.70;99.90;;;;;;5098387;28;20276;-80
2023/06/20 08:54:20;;;;;;;22.48;14.43;;;22.70;99.90;;;;;;5104481;28;20185;-79
2023/06/20 08:56:48;;;;;;;18.02;12.63;;;22.70;99.90;;;;;;5097786;27;20235;-82
2023/06/20 08:59:15;;;;;;;19.08;13.57;;;22.70;99.90;;;;;;5092128;28;20193;-79
2023/06/20 09:01:41;;;;;;;21.52;14.57;;;22.70;99.90;;;;;;5083476;28;20196;-79
2023/06/20 09:04:10;;;;;;;19.65;12.75;;;22.70;99.90;;;;;;5101514;28;20953;-82
2023/06/20 09:06:39;;;;;;;15.38;12.07;;;22.80;99.90;;;;;;5093172;28;20265;-80
2023/06/20 09:09:16;;;;;;;23.38;14.00;;;22.90;99.90;;;;;;5102147;28;20165;-80
2023/06/20 09:11:56;;;;;;;19.23;13.90;;;23.00;99.90;;;;;;5095859;28;20196;-80
2023/06/20 09:14:26;;;;;;;20.20;14.20;;;23.00;99.90;;;;;;5091766;28;20214;-81
2023/06/20 09:16:53;;;;;;;17.65;13.10;;;23.00;99.90;;;;;;5105331;28;20205;-80
2023/06/20 09:19:19;;;;;;;24.60;12.32;;;23.10;99.90;;;;;;5111716;28;20182;-80
2023/06/20 09:21:44;;;;;;;18.67;13.48;;;23.20;99.90;;;;;;5097535;28;20189;-80
2023/06/20 09:24:10;;;;;;;19.95;12.32;;;23.20;99.90;;;;;;5093351;28;20182;-79
2023/06/20 09:26:36;;;;;;;16.45;13.32;;;23.30;99.90;;;;;;5091849;27;20621;-80
2023/06/20 09:29:10;;;;;;;18.05;12.10;;;23.30;99.90;;;;;;5090687;28;20186;-79
2023/06/20 09:31:43;;;;;;;22.80;12.57;;;23.40;99.90;;;;;;5092030;28;20272;-80
2023/06/20 09:34:13;;;;;;;19.27;11.60;;;23.40;99.90;;;;;;5100844;28;20177;-79
2023/06/20 09:36:40;;;;;;;18.60;13.38;;;23.50;99.90;;;;;;5093424;28;20205;-81
2023/06/20 09:39:17;;;;;;;20.42;12.02;;;23.50;99.90;;;;;;5112450;28;20169;-80
2023/06/20 09:41:51;;;;;;;21.83;12.65;;;23.50;99.90;;;;;;5103907;28;20217;-80
2023/06/20 09:44:20;;;;;;;15.25;11.45;;;23.60;99.90;;;;;;5090778;28;20230;-80
2023/06/20 09:46:47;;;;;;;14.60;12.02;;;23.70;99.90;;;;;;5091846;28;20610;-81
2023/06/20 09:49:14;;;;;;;19.50;11.05;;;23.70;99.90;;;;;;5095841;28;20618;-80
2023/06/20 09:51:50;;;;;;;15.43;11.15;;;23.80;99.90;;;;;;5103319;28;20181;-80
2023/06/20 09:54:48;;;;;;;18.77;12.80;;;23.90;99.90;;;;;;5112250;28;20193;-80
2023/06/20 09:57:18;;;;;;;17.15;10.88;;;24.00;99.90;;;;;;5103993;28;20672;-80
2023/06/20 09:59:46;;;;;;;15.68;11.35;;;24.10;99.90;;;;;;5090497;28;20506;-80
2023/06/20 10:02:13;;;;;;;20.63;11.73;;;24.30;99.90;;;;;;5098092;28;20247;-80
2023/06/20 10:04:42;;;;;;;17.23;10.32;;;24.40;99.90;;;;;;5113300;28;20238;-80
2023/06/20 10:07:14;;;;;;;16.02;10.85;;;24.50;99.90;;;;;;5113089;28;20196;-80
2023/06/20 10:09:41;;;;;;;18.85;11.25;;;24.50;99.90;;;;;;5097614;27;20186;-80
2023/06/20 10:12:09;;;;;;;15.38;10.88;;;24.60;99.90;;;;;;5076735;28;20182;-80
2023/06/20 10:14:35;;;;;;;16.80;11.02;;;24.70;99.90;;;;;;5099412;28;20621;-79
2023/06/20 10:17:12;;;;;;;16.13;12.13;;;24.80;99.90;;;;;;5096702;28;20239;-79
2023/06/20 10:19:51;;;;;;;15.60;10.10;;;24.90;99.90;;;;;;5098082;28;20279;-79
2023/06/20 10:22:37;;;;;;;23.25;13.00;;;25.00;99.90;;;;;;5093080;28;20189;-78
2023/06/20 10:25:12;;;;;;;16.80;11.68;;;25.20;99.90;;;;;;5090075;28;20174;-79
2023/06/20 10:28:06;;;;;;;14.30;11.85;;;25.40;99.90;;;;;;5090027;28;20165;-78
2023/06/20 10:30:49;;;;;;;16.75;11.63;;;25.50;99.90;;;;;;5091068;28;20614;-78
2023/06/20 10:33:45;;;;;;;15.27;11.75;;;25.60;99.90;;;;;;5090706;28;20178;-79
2023/06/20 10:36:12;;;;;;;15.57;10.73;;;25.70;99.90;;;;;;5089309;28;20221;-79
2023/06/20 10:39:02;;;;;;;15.85;10.82;;;25.70;99.90;;;;;;5104810;28;20664;-80
2023/06/20 10:41:28;;;;;;;14.13;8.88;;;25.80;99.90;;;;;;5075210;28;20600;-81
2023/06/20 10:43:56;;;;;;;11.57;8.02;;;25.90;99.90;;;;;;5072600;28;20243;-80
2023/06/20 10:46:37;;;;;;;13.35;9.05;;;25.90;99.90;;;;;;5089961;28;20176;-80
2023/06/20 10:49:04;;;;;;;12.00;8.98;;;26.00;99.90;;;;;;5089826;28;20231;-80
2023/06/20 10:51:30;;;;;;;11.55;9.10;;;26.00;99.90;;;;;;5094191;28;20186;-80
2023/06/20 10:54:09;;;;;;;13.25;9.00;;;26.10;99.90;;;;;;5092929;28;20579;-80
2023/06/20 10:56:35;;;;;;;14.63;8.75;;;26.20;99.90;;;;;;5096495;28;20209;-78
2023/06/20 10:59:08;;;;;;;12.90;8.10;;;26.20;99.90;;;;;;5110670;28;20268;-80
2023/06/20 11:01:35;;;;;;;11.43;7.60;;;26.30;99.90;;;;;;5082393;28;20285;-78
2023/06/20 11:04:05;;;;;;;15.60;8.50;;;26.40;99.90;;;;;;5110970;28;20187;-80
2023/06/20 11:06:32;;;;;;;10.57;7.63;;;26.50;99.90;;;;;;5089630;28;20189;-80
2023/06/20 11:08:58;;;;;;;11.88;8.43;;;26.60;99.90;;;;;;5089808;28;20190;-80
2023/06/20 11:11:39;;;;;;;13.73;9.00;;;26.60;99.90;;;;;;5091013;28;20185;-80
2023/06/20 11:14:12;;;;;;;12.35;8.70;;;26.70;99.90;;;;;;5096611;28;20200;-79
2023/06/20 11:16:39;;;;;;;11.82;9.27;;;26.70;99.90;;;;;;5110443;28;20265;-80
2023/06/20 11:19:05;;;;;;;9.90;8.68;;;26.80;99.90;;;;;;5095927;28;20189;-81
2023/06/20 11:21:31;;;;;;;14.30;8.93;;;26.80;99.90;;;;;;5104257;28;20632;-81
2023/06/20 11:24:01;;;;;;;14.77;8.38;;;26.90;99.90;;;;;;5088469;28;20526;-81
2023/06/20 11:26:35;;;;;;;11.77;8.82;;;26.90;99.90;;;;;;5105014;28;20191;-80
2023/06/20 11:29:05;;;;;;;12.90;8.63;;;26.90;99.90;;;;;;5111273;28;20680;-79
2023/06/20 11:31:32;;;;;;;8.55;7.05;;;26.90;99.90;;;;;;5109061;28;20617;-81
2023/06/20 11:34:01;;;;;;;9.55;7.45;;;27.00;99.90;;;;;;5105051;28;20204;-80
2023/06/20 11:36:31;;;;;;;10.50;7.50;;;27.10;99.90;;;;;;5093254;27;20514;-81
2023/06/20 11:39:07;;;;;;;10.30;7.35;;;27.20;99.90;;;;;;5100904;28;20235;-80
2023/06/20 11:41:34;;;;;;;11.25;8.18;;;27.30;99.90;;;;;;5105229;28;20296;-82
2023/06/20 11:44:00;;;;;;;14.50;8.65;;;27.30;99.90;;;;;;5093970;27;20273;-80
2023/06/20 11:46:26;;;;;;;14.13;7.63;;;27.40;99.90;;;;;;5092873;28;20288;-80
2023/06/20 11:48:56;;;;;;;11.15;8.40;;;27.40;99.90;;;;;;5094794;28;20185;-80
2023/06/20 11:51:24;;;;;;;11.63;8.43;;;27.50;99.90;;;;;;5093412;28;20240;-80
2023/06/20 11:54:12;;;;;;;21.15;9.30;;;27.60;99.90;;;;;;5096863;28;20178;-82
2023/06/20 11:56:38;;;;;;;13.45;8.50;;;27.70;99.90;;;;;;5104888;27;20517;-82
2023/06/20 11:59:04;;;;;;;10.85;7.90;;;27.80;99.90;;;;;;5112716;28;20241;-80
2023/06/20 12:01:32;;;;;;;11.77;8.80;;;27.80;99.90;;;;;;5113711;28;20685;-80
2023/06/20 12:04:19;;;;;;;12.68;8.57;;;27.90;99.90;;;;;;5110730;27;20180;-81
2023/06/20 12:06:54;;;;;;;11.52;8.55;;;27.90;99.90;;;;;;5095383;28;20184;-81
2023/06/20 12:09:23;;;;;;;11.63;8.85;;;28.00;99.90;;;;;;5092796;28;20241;-80
2023/06/20 12:11:57;;;;;;;11.70;9.05;;;28.00;99.90;;;;;;5092777;28;20468;-81
2023/06/20 12:14:25;;;;;;;11.55;8.95;;;28.00;99.90;;;;;;5106545;27;20180;-81
2023/06/20 12:16:51;;;;;;;12.82;9.55;;;28.00;99.90;;;;;;5112884;28;20217;-81
2023/06/20 12:19:21;;;;;;;15.45;8.65;;;28.00;99.90;;;;;;5115370;28;20173;-81
2023/06/20 12:21:49;;;;;;;15.27;9.80;;;28.00;99.90;;;;;;5114239;28;20168;-81
2023/06/20 12:24:15;;;;;;;9.40;8.15;;;28.00;99.90;;;;;;5096584;27;20185;-81
2023/06/20 12:26:42;;;;;;;11.90;8.18;;;28.00;99.90;;;;;;5097847;28;20618;-81
2023/06/20 12:29:08;;;;;;;9.82;7.32;;;28.00;99.60;;;;;;5097393;28;20183;-80
2023/06/20 12:31:34;;;;;;;14.88;8.25;;;28.00;99.20;;;;;;5090114;28;20181;-79
2023/06/20 12:34:00;;;;;;;9.77;8.00;;;27.90;99.00;;;;;;5110889;28;20178;-82
2023/06/20 12:36:26;;;;;;;17.00;9.32;;;28.00;99.00;;;;;;5102388;28;20688;-82